Time;durP1;ratioP1;P1;durP2;ratioP2;P2;SDS_P1;SDS_P2;PMS_P1;PMS_P2;Temp;Humidity;BMP_temperature;BMP_pressure;BME280_temperature;BME280_humidity;BME280_pressure;Samples;Min_cycle;Max_cycle;Signal;HPM_P1;HPM_P2
2023/08/27 00:01:50;;;;;;;16.55;10.80;;;13.20;99.90;;;12.14;100.00;100759.13;4968174;28;20031;-74
2023/08/27 00:04:16;;;;;;;18.45;10.80;;;13.20;99.90;;;12.11;100.00;100754.84;4933402;28;20035;-73
2023/08/27 00:06:42;;;;;;;15.77;10.18;;;13.20;99.90;;;12.10;100.00;100753.16;4951505;28;20119;-73
2023/08/27 00:09:08;;;;;;;16.00;9.40;;;13.20;99.90;;;12.06;100.00;100746.34;4952010;28;20035;-74
2023/08/27 00:11:33;;;;;;;19.63;12.73;;;13.10;99.90;;;12.02;100.00;100758.81;4936181;28;20117;-73
2023/08/27 00:13:59;;;;;;;15.85;8.68;;;13.10;99.90;;;12.00;100.00;100760.69;4951138;28;20125;-73
2023/08/27 00:16:27;;;;;;;9.82;5.53;;;13.10;99.90;;;11.92;100.00;100754.94;4942073;28;20074;-73
2023/08/27 00:18:53;;;;;;;7.47;4.35;;;13.00;99.90;;;11.85;100.00;100756.19;4949957;28;20050;-73
2023/08/27 00:21:19;;;;;;;24.15;3.03;;;12.90;99.90;;;11.78;100.00;100746.88;4951724;28;20121;-73
2023/08/27 00:23:44;;;;;;;4.22;3.28;;;12.80;99.90;;;11.55;100.00;100754.16;4952345;28;20062;-73
2023/08/27 00:26:11;;;;;;;5.50;4.28;;;12.70;99.90;;;11.49;100.00;100746.59;4963952;28;20972;-74
2023/08/27 00:28:37;;;;;;;7.32;5.47;;;12.60;99.90;;;11.44;100.00;100746.78;4949854;28;20069;-74
2023/08/27 00:31:03;;;;;;;27.02;14.90;;;12.60;99.90;;;11.41;100.00;100739.03;4950324;28;20500;-73
2023/08/27 00:33:30;;;;;;;25.13;15.10;;;12.60;99.90;;;11.54;100.00;100739.28;4951824;28;20038;-73
2023/08/27 00:35:56;;;;;;;22.20;14.02;;;12.70;99.90;;;11.64;100.00;100740.53;4953111;28;21256;-74
2023/08/27 00:38:22;;;;;;;24.45;16.88;;;12.80;99.90;;;11.77;100.00;100751.31;4950306;28;20061;-73
2023/08/27 00:40:48;;;;;;;30.58;18.85;;;12.90;99.90;;;11.85;100.00;100743.00;4949074;28;20027;-74
2023/08/27 00:43:13;;;;;;;31.65;17.90;;;12.90;99.90;;;11.89;100.00;100744.56;4987550;23;20041;-73
2023/08/27 00:45:40;;;;;;;19.98;12.23;;;13.00;99.90;;;11.90;100.00;100747.13;5027638;28;20045;-73
2023/08/27 00:48:06;;;;;;;34.53;18.42;;;13.00;99.90;;;11.90;100.00;100752.41;5028307;28;20121;-73
2023/08/27 00:50:32;;;;;;;24.77;15.55;;;13.00;99.90;;;11.86;100.00;100750.00;5008799;28;20032;-73
2023/08/27 00:52:58;;;;;;;21.42;13.50;;;12.90;99.90;;;11.82;100.00;100744.00;5009094;28;20030;-73
2023/08/27 00:55:24;;;;;;;22.92;11.05;;;12.90;99.90;;;11.78;100.00;100746.88;5010987;28;20042;-74
2023/08/27 00:57:51;;;;;;;26.65;15.50;;;12.90;99.90;;;11.72;100.00;100745.41;5014010;28;20079;-73
2023/08/27 01:00:19;;;;;;;15.05;10.82;;;12.90;99.90;;;11.77;100.00;100746.03;5014874;28;20060;-73
2023/08/27 01:02:46;;;;;;;18.65;5.07;;;12.80;99.90;;;11.70;100.00;100729.69;5012510;28;20041;-73
2023/08/27 01:05:12;;;;;;;201.35;7.65;;;12.80;99.90;;;11.55;100.00;100730.44;5014842;28;20030;-73
2023/08/27 01:07:59;;;;;;;956.05;20.55;;;12.60;99.90;;;11.26;100.00;100735.38;5014609;28;20403;-73
2023/08/27 01:10:55;;;;;;;4.88;3.10;;;12.30;99.90;;;11.11;100.00;100725.59;5012612;28;20435;-73
2023/08/27 01:13:33;;;;;;;9.75;6.63;;;12.20;99.90;;;11.00;100.00;100712.09;5016096;28;20589;-73
2023/08/27 01:16:01;;;;;;;16.30;11.77;;;12.10;99.90;;;10.94;100.00;100702.69;4999441;28;20040;-74
2023/08/27 01:18:28;;;;;;;16.83;9.45;;;12.10;99.90;;;10.91;100.00;100688.81;5013414;28;20410;-74
2023/08/27 01:20:54;;;;;;;22.30;12.27;;;12.10;99.90;;;10.88;100.00;100695.97;5014371;28;20052;-73
2023/08/27 01:23:20;;;;;;;18.20;8.40;;;12.10;99.90;;;10.96;100.00;100702.63;5013501;28;20507;-73
2023/08/27 01:25:50;;;;;;;11.88;9.18;;;12.10;99.90;;;11.01;100.00;100698.81;5014336;28;20029;-73
2023/08/27 01:28:39;;;;;;;16.20;10.75;;;12.10;99.90;;;11.03;100.00;100689.06;5014429;28;20031;-73
2023/08/27 01:31:12;;;;;;;16.52;11.55;;;12.10;99.90;;;11.04;100.00;100690.78;5014975;28;20037;-74
2023/08/27 01:33:40;;;;;;;17.08;10.93;;;12.10;99.90;;;11.07;100.00;100687.16;4996855;28;20048;-74
2023/08/27 01:36:07;;;;;;;103.20;3.97;;;12.10;99.90;;;10.98;100.00;100691.09;5013209;28;20033;-73
2023/08/27 01:38:33;;;;;;;9.57;5.15;;;12.00;99.90;;;10.86;100.00;100710.97;5013729;28;20037;-74
2023/08/27 01:40:59;;;;;;;7.88;3.90;;;12.00;99.90;;;10.80;100.00;100713.91;5014303;28;20389;-73
2023/08/27 01:43:25;;;;;;;3.40;2.30;;;11.90;99.90;;;10.76;100.00;100719.41;5029322;28;20030;-74
2023/08/27 01:45:50;;;;;;;8.07;3.20;;;11.90;99.90;;;10.72;100.00;100718.69;5029492;28;20029;-74
2023/08/27 01:48:16;;;;;;;55.30;1.90;;;11.90;99.90;;;10.64;100.00;100713.75;5012316;28;20048;-74
2023/08/27 01:50:42;;;;;;;179.48;6.05;;;11.70;99.90;;;10.51;100.00;100711.78;5013596;28;20030;-73
2023/08/27 01:53:08;;;;;;;2.80;1.27;;;11.70;99.90;;;10.46;100.00;100714.63;5013615;28;20038;-74
2023/08/27 01:55:34;;;;;;;10.48;6.32;;;11.60;99.90;;;10.43;100.00;100725.28;5013209;28;20682;-73
2023/08/27 01:58:02;;;;;;;29.20;16.60;;;11.60;99.90;;;10.48;100.00;100723.31;5013872;28;20586;-77
2023/08/27 02:00:28;;;;;;;22.23;14.57;;;11.70;99.90;;;10.61;100.00;100723.59;5013419;28;20108;-74
2023/08/27 02:02:54;;;;;;;37.08;24.45;;;11.80;99.90;;;10.75;100.00;100725.56;5029260;28;20109;-74
2023/08/27 02:05:19;;;;;;;32.03;22.02;;;11.90;99.90;;;10.91;100.00;100717.78;5031237;28;20021;-74
2023/08/27 02:07:45;;;;;;;46.33;27.73;;;12.00;99.90;;;11.05;100.00;100717.97;5030747;28;20053;-74
2023/08/27 02:10:11;;;;;;;43.03;27.17;;;12.20;99.90;;;11.17;100.00;100716.53;5030479;28;20061;-74
2023/08/27 02:12:39;;;;;;;42.80;26.65;;;12.30;99.90;;;11.28;100.00;100730.03;5012680;28;20112;-74
2023/08/27 02:15:08;;;;;;;41.00;25.35;;;12.40;99.90;;;11.39;100.00;100724.25;4996134;28;20608;-74
2023/08/27 02:17:34;;;;;;;34.67;25.02;;;12.50;99.90;;;11.48;100.00;100710.59;5013185;28;20682;-74
2023/08/27 02:20:00;;;;;;;34.10;23.48;;;12.60;99.90;;;11.53;100.00;100711.19;5012459;28;20080;-74
2023/08/27 02:22:26;;;;;;;32.95;21.75;;;12.60;99.90;;;11.58;100.00;100719.75;5012710;28;20026;-74
2023/08/27 02:24:52;;;;;;;42.58;21.88;;;12.70;99.90;;;11.61;100.00;100730.13;5013174;28;20094;-73
2023/08/27 02:27:18;;;;;;;34.78;21.92;;;12.70;99.90;;;11.62;100.00;100721.28;5013302;28;20531;-74
2023/08/27 02:29:44;;;;;;;31.08;22.65;;;12.80;99.90;;;11.69;100.00;100711.28;5012374;28;20109;-73
2023/08/27 02:32:10;;;;;;;27.30;20.05;;;12.70;99.90;;;11.72;100.00;100707.63;4996144;28;20044;-73
2023/08/27 02:34:35;;;;;;;33.60;22.08;;;12.80;99.90;;;11.75;100.00;100703.06;5031426;28;20021;-74
2023/08/27 02:37:01;;;;;;;26.25;11.43;;;12.80;99.90;;;11.74;100.00;100703.97;5011614;28;20065;-73
2023/08/27 02:39:27;;;;;;;19.17;10.20;;;12.80;99.90;;;11.63;100.00;100679.94;5029332;28;20041;-74
2023/08/27 02:41:53;;;;;;;11.90;8.32;;;12.70;99.90;;;11.52;100.00;100677.84;5012961;28;20120;-74
2023/08/27 02:44:18;;;;;;;17.17;13.32;;;12.60;99.90;;;11.46;100.00;100686.06;5012244;28;20112;-74
2023/08/27 02:46:44;;;;;;;21.50;11.93;;;12.50;99.90;;;11.39;100.00;100668.88;5012260;28;20029;-74
2023/08/27 02:49:10;;;;;;;26.38;12.27;;;12.50;99.90;;;11.34;100.00;100655.94;5010668;28;20060;-74
2023/08/27 02:51:35;;;;;;;15.43;9.93;;;12.50;99.90;;;11.35;100.00;100652.34;5021713;28;20076;-74
2023/08/27 02:54:04;;;;;;;18.55;12.82;;;12.40;99.90;;;11.33;100.00;100654.22;5020635;28;20456;-73
2023/08/27 02:56:30;;;;;;;13.52;9.48;;;12.40;99.90;;;11.31;100.00;100668.41;5030652;28;20036;-74
2023/08/27 02:58:55;;;;;;;22.67;14.38;;;12.30;99.90;;;11.26;100.00;100671.28;5027179;28;20033;-74
2023/08/27 03:01:21;;;;;;;20.42;12.90;;;12.30;99.90;;;11.23;100.00;100684.59;5028637;28;20124;-74
2023/08/27 03:03:51;;;;;;;27.70;20.77;;;12.30;99.90;;;11.24;100.00;100686.31;5012256;28;20029;-74
2023/08/27 03:06:18;;;;;;;28.17;17.05;;;12.30;99.90;;;11.24;100.00;100684.53;5013033;28;20043;-74
2023/08/27 03:08:43;;;;;;;3.60;2.83;;;12.30;99.90;;;11.21;100.00;100681.19;5011226;28;20029;-77
2023/08/27 03:11:09;;;;;;;15.43;9.32;;;12.30;99.90;;;11.14;100.00;100691.16;4995866;28;20048;-74
2023/08/27 03:13:36;;;;;;;428.42;14.90;;;12.20;99.90;;;11.07;100.00;100687.16;5011443;28;20030;-75
2023/08/27 03:16:01;;;;;;;10.00;3.20;;;12.20;99.90;;;10.98;100.00;100679.69;5011722;28;20047;-73
2023/08/27 03:18:32;;;;;;;8.55;7.22;;;12.10;99.90;;;10.89;100.00;100686.28;5028524;28;20547;-74
2023/08/27 03:20:57;;;;;;;10.48;8.13;;;12.00;99.90;;;10.83;100.00;100690.03;5009757;28;20025;-74
2023/08/27 03:23:23;;;;;;;29.05;20.13;;;11.90;99.90;;;10.80;100.00;100687.56;5011700;28;20028;-74
2023/08/27 03:25:50;;;;;;;34.15;21.95;;;12.00;99.90;;;10.81;100.00;100705.06;5012057;28;20130;-74
2023/08/27 03:28:15;;;;;;;37.38;21.98;;;12.00;99.90;;;10.88;100.00;100711.78;5011167;28;20124;-74
2023/08/27 03:30:41;;;;;;;36.05;24.55;;;12.10;99.90;;;10.97;100.00;100725.41;4995469;28;20167;-75
2023/08/27 03:33:07;;;;;;;33.88;22.48;;;12.10;99.90;;;11.05;100.00;100736.44;4995362;28;20080;-73
2023/08/27 03:35:35;;;;;;;29.65;21.02;;;12.20;99.90;;;11.12;100.00;100736.97;5028564;28;20033;-74
2023/08/27 03:38:01;;;;;;;32.03;21.40;;;12.30;99.90;;;11.16;100.00;100728.84;5012297;28;20033;-74
2023/08/27 03:40:26;;;;;;;30.52;21.23;;;12.30;99.90;;;11.22;100.00;100728.53;5029683;28;20124;-73
2023/08/27 03:42:52;;;;;;;28.55;21.50;;;12.30;99.90;;;11.27;100.00;100730.94;4994870;28;20140;-73
2023/08/27 03:45:20;;;;;;;29.52;21.33;;;12.30;99.90;;;11.29;100.00;100732.59;5009943;28;20121;-74
2023/08/27 03:47:45;;;;;;;35.50;22.75;;;12.40;99.90;;;11.35;100.00;100727.94;5028445;28;20025;-74
2023/08/27 03:50:11;;;;;;;30.95;22.77;;;12.50;99.90;;;11.40;100.00;100728.56;5011784;28;20056;-74
2023/08/27 03:52:37;;;;;;;25.20;18.35;;;12.50;99.90;;;11.46;100.00;100737.03;5009834;28;20499;-74
2023/08/27 03:55:03;;;;;;;36.95;23.65;;;12.50;99.90;;;11.47;100.00;100733.47;5011393;28;20032;-74
2023/08/27 03:57:29;;;;;;;34.35;22.95;;;12.50;99.90;;;11.44;100.00;100730.13;5027253;28;20715;-74
2023/08/27 03:59:55;;;;;;;32.70;23.05;;;12.50;99.90;;;11.44;100.00;100714.31;5010740;28;20034;-74
2023/08/27 04:02:21;;;;;;;24.63;16.33;;;12.50;99.90;;;11.44;100.00;100716.94;5011056;28;20035;-74
2023/08/27 04:04:47;;;;;;;34.10;23.95;;;12.50;99.90;;;11.44;100.00;100711.66;5011508;28;20056;-74
2023/08/27 04:07:13;;;;;;;20.85;15.50;;;12.50;99.90;;;11.45;100.00;100705.47;5027793;28;20029;-74
2023/08/27 04:09:39;;;;;;;712.13;26.83;;;12.50;99.90;;;11.40;100.00;100708.34;5027339;28;20037;-74
2023/08/27 04:12:07;;;;;;;10.18;7.68;;;12.40;99.90;;;11.29;100.00;100711.53;4993803;28;20462;-74
2023/08/27 04:14:33;;;;;;;8.25;6.90;;;12.40;99.90;;;11.23;100.00;100709.19;5010647;28;20435;-74
2023/08/27 04:16:59;;;;;;;29.42;19.45;;;12.30;99.90;;;11.20;100.00;100714.59;5027751;28;20137;-74
2023/08/27 04:19:25;;;;;;;31.63;19.98;;;12.30;99.90;;;11.16;100.00;100704.28;5010875;28;20140;-74
2023/08/27 04:21:50;;;;;;;36.97;22.92;;;12.30;99.90;;;11.17;100.00;100706.84;5028985;28;20028;-74
2023/08/27 04:24:16;;;;;;;33.45;21.98;;;12.30;99.90;;;11.26;100.00;100710.81;5008304;28;20053;-74
2023/08/27 04:26:42;;;;;;;38.03;23.65;;;12.40;99.90;;;11.35;100.00;100712.13;5027027;28;20493;-74
2023/08/27 04:29:07;;;;;;;32.25;21.65;;;12.40;99.90;;;11.45;100.00;100714.22;5029099;28;20470;-74
2023/08/27 04:31:33;;;;;;;30.38;18.17;;;12.50;99.90;;;11.54;100.00;100712.91;5028690;28;20121;-74
2023/08/27 04:34:02;;;;;;;36.05;19.58;;;12.60;99.90;;;11.64;100.00;100710.66;5011537;28;20124;-74
2023/08/27 04:36:28;;;;;;;26.42;17.35;;;12.70;99.90;;;11.73;100.00;100698.75;5028232;28;20079;-74
2023/08/27 04:38:54;;;;;;;25.02;17.67;;;12.80;99.90;;;11.92;100.00;100701.34;5028913;28;20084;-74
2023/08/27 04:41:19;;;;;;;26.75;17.90;;;12.90;99.90;;;12.10;100.00;100697.75;5009155;28;20056;-73
2023/08/27 04:43:46;;;;;;;26.85;17.52;;;13.10;99.90;;;12.25;100.00;100694.28;5009742;28;20530;-75
2023/08/27 04:46:12;;;;;;;25.58;16.52;;;13.20;99.90;;;12.40;100.00;100699.66;5011836;28;20120;-74
2023/08/27 04:48:39;;;;;;;27.63;16.20;;;13.30;99.90;;;12.44;100.00;100702.03;5013702;28;20075;-74
2023/08/27 04:51:05;;;;;;;24.85;16.17;;;13.40;99.90;;;12.68;100.00;100718.31;5011025;28;20414;-74
2023/08/27 04:53:30;;;;;;;21.02;15.25;;;13.60;99.90;;;12.98;100.00;100716.69;5009245;28;20038;-74
2023/08/27 04:55:56;;;;;;;25.35;14.65;;;13.70;99.90;;;12.98;100.00;100714.91;4994471;28;20059;-74
2023/08/27 04:58:22;;;;;;;19.80;13.13;;;13.80;99.90;;;13.09;100.00;100722.22;5011745;28;20122;-74
2023/08/27 05:00:50;;;;;;;19.10;12.60;;;13.90;99.90;;;13.05;100.00;100726.81;5028504;28;20124;-74
2023/08/27 05:03:17;;;;;;;22.67;12.70;;;14.00;99.90;;;13.14;100.00;100730.75;5011663;28;20037;-74
2023/08/27 05:05:42;;;;;;;20.23;12.30;;;14.00;99.90;;;13.16;100.00;100726.22;5011224;28;20033;-73
2023/08/27 05:08:08;;;;;;;20.73;12.15;;;14.10;99.90;;;13.21;100.00;100726.78;5028841;28;20033;-74
2023/08/27 05:10:34;;;;;;;21.95;12.73;;;14.10;99.90;;;13.25;100.00;100722.19;5012906;28;20109;-74
2023/08/27 05:13:00;;;;;;;19.65;11.55;;;14.20;99.90;;;13.28;100.00;100722.91;5028400;28;20045;-74
2023/08/27 05:15:25;;;;;;;17.48;11.65;;;14.20;99.90;;;13.38;100.00;100717.06;5028315;28;20101;-74
2023/08/27 05:17:51;;;;;;;20.75;12.75;;;14.30;99.90;;;13.46;100.00;100714.84;5027202;28;20053;-73
2023/08/27 05:20:17;;;;;;;17.85;11.98;;;14.30;99.90;;;13.56;100.00;100725.72;5012954;28;20041;-74
2023/08/27 05:22:43;;;;;;;16.10;10.85;;;14.40;99.90;;;13.70;100.00;100723.09;5012703;28;20040;-74
2023/08/27 05:25:09;;;;;;;16.52;10.23;;;14.50;99.90;;;13.83;100.00;100728.53;5011284;28;20032;-74
2023/08/27 05:27:35;;;;;;;15.05;10.25;;;14.60;99.90;;;13.97;100.00;100735.63;5010248;28;20037;-74
2023/08/27 05:30:04;;;;;;;20.67;9.82;;;14.80;99.90;;;14.51;100.00;100731.38;5011274;28;20029;-74
2023/08/27 05:32:29;;;;;;;16.60;10.00;;;15.10;99.90;;;15.31;100.00;100750.13;5031103;28;20475;-74
2023/08/27 05:34:55;;;;;;;12.10;9.15;;;15.70;99.90;;;17.05;92.51;100769.16;5011304;28;20092;-74
2023/08/27 05:37:21;;;;;;;14.18;8.90;;;16.50;99.90;;;18.68;83.11;100772.72;5023460;28;20037;-73
2023/08/27 05:39:47;;;;;;;13.18;8.32;;;17.50;99.90;;;20.88;73.79;100781.81;5010435;28;20116;-74
2023/08/27 05:42:12;;;;;;;12.13;8.27;;;18.60;99.90;;;22.03;68.18;100799.94;5025958;28;20124;-74
2023/08/27 05:44:38;;;;;;;16.63;8.32;;;19.80;99.90;;;23.53;63.78;100808.72;5014237;28;20066;-74
2023/08/27 05:47:04;;;;;;;12.57;7.40;;;20.60;99.90;;;24.14;60.88;100817.81;4997758;28;20049;-73
2023/08/27 05:49:30;;;;;;;12.65;7.00;;;21.40;99.90;;;24.57;58.68;100821.47;5030573;28;20041;-73
2023/08/27 05:51:55;;;;;;;15.40;6.53;;;21.90;99.90;;;24.71;58.68;100817.34;5014612;28;20116;-74
2023/08/27 05:54:21;;;;;;;13.32;6.45;;;22.40;99.90;;;24.89;57.77;100811.84;5012258;23;20531;-79
2023/08/27 05:56:48;;;;;;;8.63;5.95;;;22.20;99.90;;;22.29;62.74;100787.63;4995753;28;20033;-78
2023/08/27 05:59:15;;;;;;;10.55;6.60;;;21.90;99.90;;;21.70;65.13;100783.34;4996729;28;20505;-79
2023/08/27 06:01:41;;;;;;;12.85;6.32;;;21.40;99.90;;;21.55;65.71;100774.88;4996964;28;20463;-79
2023/08/27 06:04:08;;;;;;;12.20;6.00;;;21.20;99.90;;;21.09;66.59;100768.34;4992281;28;20030;-78
2023/08/27 06:06:36;;;;;;;13.55;5.78;;;20.80;99.90;;;20.02;69.03;100760.75;4989306;28;20095;-78
2023/08/27 06:09:03;;;;;;;9.30;6.15;;;20.40;99.90;;;19.46;71.57;100753.03;4987576;28;20026;-78
2023/08/27 06:11:29;;;;;;;9.13;5.50;;;20.00;99.90;;;19.14;72.81;100751.19;4996853;28;20075;-79
2023/08/27 06:13:55;;;;;;;12.65;5.70;;;19.70;99.90;;;18.65;74.71;100739.16;4990133;28;20120;-78
2023/08/27 06:16:20;;;;;;;12.85;5.82;;;19.30;99.90;;;18.16;76.72;100730.56;4991492;28;20700;-79
2023/08/27 06:18:46;;;;;;;11.18;5.90;;;19.00;99.90;;;17.85;78.31;100715.28;4990732;28;20116;-78
2023/08/27 06:21:12;;;;;;;11.15;5.90;;;18.80;99.90;;;17.89;78.96;100722.06;4971678;28;20069;-79
2023/08/27 06:23:38;;;;;;;8.65;6.25;;;18.70;99.90;;;18.48;78.27;100734.31;4980186;28;20034;-78
2023/08/27 06:26:04;;;;;;;11.40;6.13;;;18.90;99.90;;;19.06;76.46;100732.28;4989764;28;20038;-78
2023/08/27 06:28:31;;;;;;;11.80;6.28;;;19.20;99.90;;;19.21;75.89;100735.53;4974236;28;20109;-78
2023/08/27 06:30:56;;;;;;;10.70;6.20;;;19.40;99.90;;;19.37;75.60;100738.63;4995847;28;20105;-79
2023/08/27 06:33:22;;;;;;;10.98;6.15;;;19.50;99.90;;;19.36;76.07;100741.41;4978841;28;20156;-79
2023/08/27 06:35:48;;;;;;;11.63;6.40;;;19.70;99.90;;;20.00;74.44;100727.09;4996296;28;20065;-78
2023/08/27 06:38:14;;;;;;;8.10;5.32;;;20.10;99.90;;;20.78;72.10;100738.16;4997196;28;20108;-78
2023/08/27 06:40:40;;;;;;;8.55;5.28;;;20.50;99.90;;;20.98;70.91;100744.38;4990441;28;20125;-79
2023/08/27 06:43:06;;;;;;;9.43;4.88;;;20.90;99.90;;;21.12;70.35;100745.78;4995124;28;20069;-78
2023/08/27 06:45:31;;;;;;;10.63;4.93;;;21.10;99.90;;;21.20;70.05;100740.59;5014895;28;20080;-78
2023/08/27 06:47:57;;;;;;;13.75;4.70;;;21.20;99.90;;;21.07;69.83;100736.34;4995587;28;20547;-80
2023/08/27 06:50:23;;;;;;;10.18;4.88;;;21.20;99.90;;;20.79;69.57;100731.81;4990226;28;20068;-78
2023/08/27 06:52:49;;;;;;;9.65;4.90;;;21.20;99.90;;;20.76;70.49;100738.28;4971602;28;20121;-78
2023/08/27 06:55:15;;;;;;;11.02;4.90;;;21.20;99.90;;;20.87;70.16;100742.69;4995688;28;20089;-77
2023/08/27 06:57:40;;;;;;;8.75;4.90;;;21.20;99.90;;;21.04;69.04;100747.34;4996335;28;20042;-78
2023/08/27 07:00:07;;;;;;;11.88;4.80;;;21.40;99.90;;;21.20;69.10;100737.91;5013755;28;20053;-78
2023/08/27 07:02:33;;;;;;;10.23;4.38;;;21.50;99.90;;;21.39;68.72;100735.25;4988933;28;20037;-78
2023/08/27 07:04:59;;;;;;;10.15;4.90;;;21.60;99.90;;;21.35;68.03;100743.72;4992948;28;20080;-78
2023/08/27 07:07:26;;;;;;;9.10;4.03;;;21.70;99.90;;;21.35;68.25;100754.41;4987366;28;20543;-78
2023/08/27 07:09:52;;;;;;;8.82;4.60;;;21.80;99.90;;;21.31;68.32;100768.06;4987037;28;20041;-79
2023/08/27 07:12:20;;;;;;;9.57;3.78;;;21.70;99.90;;;21.00;67.84;100756.63;4986309;28;20026;-78
2023/08/27 07:14:46;;;;;;;10.05;4.40;;;21.60;99.90;;;21.02;68.59;100746.63;4993981;28;20029;-78
2023/08/27 07:17:14;;;;;;;14.65;4.57;;;21.60;99.90;;;21.09;68.51;100761.16;4987002;28;20718;-78
2023/08/27 07:19:40;;;;;;;7.40;3.85;;;21.70;99.90;;;21.54;68.33;100765.16;4994835;28;20045;-78
2023/08/27 07:22:06;;;;;;;8.02;4.05;;;21.90;99.90;;;22.09;67.10;100768.06;5001181;28;20038;-79
2023/08/27 07:24:32;;;;;;;11.57;3.88;;;22.40;99.90;;;22.83;65.16;100774.41;4984289;28;20069;-80
2023/08/27 07:26:58;;;;;;;6.40;3.60;;;22.90;99.90;;;23.08;63.76;100777.38;4990059;28;20109;-77
2023/08/27 07:29:24;;;;;;;11.48;4.47;;;23.20;99.90;;;23.04;63.62;100779.50;5012852;28;20041;-78
2023/08/27 07:31:50;;;;;;;9.10;4.05;;;23.30;99.90;;;22.99;62.81;100786.31;4983511;28;20030;-78
2023/08/27 07:34:15;;;;;;;14.40;4.53;;;23.40;99.90;;;23.17;63.38;100795.25;4977001;28;20429;-77
2023/08/27 07:36:41;;;;;;;9.88;3.60;;;23.60;99.90;;;23.43;63.15;100798.03;4994062;28;20467;-79
2023/08/27 07:39:07;;;;;;;9.68;3.47;;;23.70;99.90;;;23.41;63.32;100799.19;5011582;28;20523;-79
2023/08/27 07:41:33;;;;;;;8.23;3.70;;;23.70;99.90;;;23.26;62.54;100797.06;4994212;28;20061;-79
2023/08/27 07:43:58;;;;;;;11.50;4.03;;;23.70;99.90;;;23.38;62.65;100803.03;4968944;28;20112;-78
2023/08/27 07:46:24;;;;;;;10.45;3.80;;;23.70;99.90;;;23.07;61.95;100794.50;4980384;28;20069;-79
2023/08/27 07:48:50;;;;;;;8.25;3.42;;;23.60;99.90;;;23.10;62.09;100796.88;4993696;28;20022;-79
2023/08/27 07:51:16;;;;;;;9.48;3.50;;;23.50;99.90;;;22.70;62.07;100793.53;4984358;28;20066;-78
2023/08/27 07:53:42;;;;;;;9.48;2.85;;;23.30;99.90;;;22.63;62.68;100797.78;4994009;28;20044;-79
2023/08/27 07:56:09;;;;;;;7.65;3.53;;;23.10;99.90;;;22.40;63.36;100801.88;4987574;28;20109;-78
2023/08/27 07:58:35;;;;;;;8.25;2.92;;;23.00;99.90;;;22.39;63.84;100798.31;4985726;28;20023;-78
2023/08/27 08:01:02;;;;;;;6.60;3.13;;;22.90;99.90;;;22.10;63.38;100790.34;4993830;28;20117;-79
2023/08/27 08:03:28;;;;;;;12.13;3.00;;;22.80;99.90;;;22.13;64.32;100782.00;4994594;28;20026;-78
2023/08/27 08:05:54;;;;;;;8.95;3.20;;;22.70;99.90;;;22.02;63.90;100776.81;5011946;28;20034;-78
2023/08/27 08:08:20;;;;;;;8.13;3.28;;;22.50;99.90;;;21.58;64.47;100760.38;4994090;28;20136;-80
2023/08/27 08:10:45;;;;;;;15.30;2.83;;;22.30;99.90;;;21.31;64.89;100743.97;4994235;28;20041;-78
2023/08/27 08:13:12;;;;;;;6.32;2.80;;;22.20;99.90;;;21.36;64.99;100743.56;4986864;28;20381;-79
2023/08/27 08:15:37;;;;;;;9.90;3.17;;;22.10;99.90;;;21.41;65.19;100748.50;4975223;28;20038;-79
2023/08/27 08:18:03;;;;;;;10.05;3.22;;;22.10;99.90;;;21.43;65.43;100759.97;4987392;28;20116;-80
2023/08/27 08:20:29;;;;;;;7.00;2.65;;;22.10;99.90;;;21.66;66.19;100782.78;4994751;28;20033;-78
2023/08/27 08:22:55;;;;;;;6.00;2.92;;;22.30;99.90;;;21.96;67.09;100802.34;4986575;28;20026;-78
2023/08/27 08:25:27;;;;;;;8.57;2.50;;;22.50;99.90;;;22.21;64.93;100800.88;4970259;28;20098;-78
2023/08/27 08:27:53;;;;;;;10.13;2.60;;;22.70;99.90;;;22.42;64.95;100814.13;4994850;28;20018;-78
2023/08/27 08:30:18;;;;;;;5.82;2.70;;;22.80;99.90;;;22.25;64.81;100799.66;4970941;28;20084;-78
2023/08/27 08:32:44;;;;;;;8.82;3.00;;;22.80;99.90;;;22.01;63.83;100789.38;4993854;28;20118;-78
2023/08/27 08:35:10;;;;;;;10.45;3.03;;;22.70;99.90;;;21.89;65.10;100775.28;4987180;28;20065;-79
2023/08/27 08:37:36;;;;;;;10.38;2.95;;;22.50;99.90;;;21.74;65.26;100765.97;4977888;28;20054;-78
2023/08/27 08:40:02;;;;;;;9.40;2.85;;;22.40;99.90;;;21.70;66.22;100762.72;4989501;28;20029;-79
2023/08/27 08:42:57;;;;;;;12.00;2.50;;;22.40;99.90;;;21.68;65.95;100770.09;4987720;28;20038;-78
2023/08/27 08:45:36;;;;;;;7.38;2.47;;;22.30;99.90;;;21.60;65.05;100763.75;5011153;28;20064;-79
2023/08/27 08:48:05;;;;;;;12.27;2.70;;;22.20;99.90;;;21.48;65.90;100750.50;4981335;28;20622;-78
2023/08/27 08:50:35;;;;;;;4.45;2.35;;;22.20;99.90;;;21.53;66.44;100759.94;4986951;28;20070;-78
2023/08/27 08:53:16;;;;;;;6.88;2.70;;;22.20;99.90;;;21.68;66.07;100751.34;4995832;28;20435;-79
2023/08/27 08:55:46;;;;;;;6.70;2.58;;;22.30;99.90;;;21.78;65.46;100747.78;4994287;28;20029;-78
2023/08/27 08:58:13;;;;;;;5.72;2.55;;;22.30;99.90;;;21.65;65.46;100743.56;4994576;28;20030;-79
2023/08/27 09:00:43;;;;;;;3.38;2.13;;;22.30;99.90;;;21.70;65.35;100733.25;4971170;28;20397;-78
2023/08/27 09:03:11;;;;;;;6.30;2.50;;;22.30;99.90;;;21.82;65.41;100725.91;4990805;28;20078;-78
2023/08/27 09:05:38;;;;;;;10.05;2.80;;;22.40;99.90;;;21.99;65.89;100724.31;4992532;28;20026;-78
2023/08/27 09:08:10;;;;;;;8.00;2.10;;;22.50;99.90;;;22.12;65.84;100727.53;4987170;28;20025;-79
2023/08/27 09:10:37;;;;;;;13.05;2.63;;;22.70;99.90;;;22.22;65.50;100732.88;4977104;28;20042;-78
2023/08/27 09:13:08;;;;;;;6.72;2.40;;;22.80;99.90;;;22.32;64.79;100733.69;4985413;28;20144;-80
2023/08/27 09:15:34;;;;;;;7.57;2.30;;;22.90;99.90;;;22.42;64.18;100732.78;4991435;28;20046;-78
2023/08/27 09:18:01;;;;;;;5.13;2.33;;;22.90;99.90;;;22.47;64.10;100730.53;4995967;28;20101;-77
2023/08/27 09:20:27;;;;;;;3.97;1.75;;;23.10;99.90;;;22.61;63.11;100732.69;4990069;28;20097;-79
2023/08/27 09:22:53;;;;;;;9.70;2.10;;;23.20;99.90;;;22.80;62.66;100742.47;4979542;28;20034;-79
2023/08/27 09:25:19;;;;;;;6.28;2.50;;;23.40;99.90;;;23.13;62.53;100732.97;4972602;28;20044;-78
2023/08/27 09:27:46;;;;;;;7.80;2.35;;;23.60;99.90;;;23.33;62.18;100730.97;4997105;28;20112;-78
2023/08/27 09:30:12;;;;;;;7.13;1.90;;;23.80;99.90;;;23.45;60.76;100736.94;4996851;28;20062;-78
2023/08/27 09:32:38;;;;;;;6.47;2.15;;;23.90;99.90;;;23.47;60.60;100729.56;4971431;28;20034;-78
2023/08/27 09:35:07;;;;;;;8.18;2.20;;;24.00;99.90;;;23.48;60.04;100728.56;4971629;28;20049;-78
2023/08/27 09:37:43;;;;;;;8.10;2.00;;;24.00;99.90;;;23.40;59.09;100717.75;4997170;28;20173;-79
2023/08/27 09:40:13;;;;;;;7.38;2.00;;;24.10;99.90;;;23.67;58.44;100726.69;4981858;28;20550;-78
2023/08/27 09:42:46;;;;;;;6.97;2.05;;;24.20;99.90;;;23.81;58.21;100723.47;4987866;28;20043;-79
2023/08/27 09:45:12;;;;;;;4.97;1.90;;;24.40;99.90;;;24.02;58.29;100722.28;4995154;28;20042;-78
2023/08/27 09:47:40;;;;;;;9.57;2.08;;;24.50;99.90;;;24.04;57.11;100731.88;4994919;28;20100;-78
2023/08/27 09:50:17;;;;;;;6.35;2.13;;;24.60;99.90;;;24.21;57.06;100727.41;4991211;28;20069;-78
2023/08/27 09:52:43;;;;;;;4.85;1.83;;;24.70;99.90;;;24.34;57.60;100737.72;4988181;28;20584;-78
2023/08/27 09:55:22;;;;;;;13.48;2.05;;;24.70;99.90;;;24.12;55.18;100744.50;4971296;28;20030;-77
2023/08/27 09:57:53;;;;;;;10.20;1.92;;;24.70;99.90;;;24.05;55.98;100732.69;4995036;28;20038;-78
2023/08/27 10:00:21;;;;;;;4.05;1.52;;;24.50;99.90;;;23.92;56.59;100743.88;4978908;28;20049;-78
2023/08/27 10:02:54;;;;;;;4.15;1.83;;;24.50;99.90;;;23.90;56.99;100735.13;4990993;28;20157;-78